METAR Data
IDs: Format: Raw Decoded Include TAF

Data at: 0007 UTC 26 Oct 2021

PAGS 252356Z AUTO 32003KT 10SM -RA FEW048 OVC060 04/03 A2912 RMK AO2 RAB06 SLP860 P0000 60002 T00390033 10039 21011 58001
PAGS 252256Z AUTO 34003KT 10SM OVC065 03/03 A2912 RMK AO2 RAE51 SLP860 P0000 T00330033
PAGS 252156Z AUTO 33003KT 10SM -RA BKN039 OVC046 03/02 A2912 RMK AO2 SLP861 P0002 T00280022
PAGS 252056Z AUTO 00000KT 10SM -RA SCT043 OVC050 02/01 A2912 RMK AO2 UPE06RAB06 SLP861 P0000 60000 T00170011 51005 FZRANO
PAGS 251956Z AUTO 34003KT 10SM UP OVC050 01/00 A2912 RMK AO2 UPB30 SLP861 P0000 T00060000 FZRANO
PAGS 251856Z AUTO 00000KT 10SM OVC080 00/M01 A2912 RMK AO2 SLP861 T00001006 FZRANO
PAGS 251756Z AUTO 35003KT 10SM OVC090 M01/M01 A2911 RMK AO2 SLP855 T10111011 11011 21039 56006 FZRANO
PAGS 251656Z AUTO 00000KT 10SM BKN085 M02/M03 A2911 RMK AO2 SLP857 T10221028 FZRANO
PAGS 251556Z AUTO 00000KT 10SM CLR M03/M04 A2912 RMK AO2 SLP859 T10331039 FZRANO
PAGS 251456Z AUTO 00000KT 10SM CLR M03/M04 A2912 RMK AO2 SLP861 T10331039 56013 FZRANO
PAGS 251356Z AUTO 33003KT 10SM CLR M04/M04 A2913 RMK AO2 SLP865 T10391044 FZRANO
PAGS 251256Z AUTO 33005KT 10SM CLR M03/M04 A2915 RMK AO2 SLP869 T10331044 FZRANO
PAGS 251156Z AUTO 33003KT 10SM CLR M03/M04 A2916 RMK AO2 SLP874 T10331039 11017 21033 56010 FZRANO
PAGS 251056Z AUTO 00000KT 10SM CLR M03/M03 A2917 RMK AO2 SLP877 T10281033 FZRANO
PAGS 250956Z AUTO 00000KT 10SM CLR M03/M03 A2918 RMK AO2 SLP880 T10281033 FZRANO
PAGS 250856Z AUTO 35005KT 10SM CLR M02/M03 A2919 RMK AO2 SLP884 T10221028 400891022 56004 FZRANO
PAGS 250756Z AUTO 00000KT 10SM CLR M02/M03 A2919 RMK AO2 SLP885 T10221028 FZRANO
PAGS 250656Z AUTO 00000KT 10SM CLR M02/M02 A2919 RMK AO2 SLP885 T10171022 FZRANO
PAGS 250556Z AUTO 01003KT 10SM CLR M02/M02 A2920 RMK AO2 SLP888 T10171022 10078 21017 58004 FZRANO
PAGS 250456Z AUTO 33003KT 10SM CLR M01/M01 A2921 RMK AO2 SLP890 T10061011 FZRANO
PAGS 250356Z AUTO 00000KT 10SM CLR 01/01 A2921 RMK AO2 SLP892 T00110006 FZRANO
PAGS 250256Z AUTO 00000KT 10SM CLR 02/01 A2921 RMK AO2 SLP892 T00220011 56013 FZRANO
PAGS 250156Z AUTO 00000KT 10SM CLR 04/02 A2923 RMK AO2 SLP897 T00390022
PAGS 250056Z AUTO 33003KT 10SM CLR 06/02 A2923 RMK AO2 SLP898 T00610022
PAGS 242356Z AUTO 32006KT 10SM CLR 08/02 A2925 RMK AO2 SLP905 T00780017 10089 20011 56024
PAGS 242256Z AUTO 31007KT 10SM CLR 08/02 A2927 RMK AO2 SLP912 T00830017
PAGS 242156Z AUTO 31010KT 10SM CLR 09/03 A2930 RMK AO2 SLP920 T00890028
PAGS 242056Z AUTO 32011KT 10SM CLR 08/03 A2932 RMK AO2 SLP929 T00830033 57036
PAGS 241956Z AUTO 35006KT 10SM CLR 07/04 A2936 RMK AO2 SLP941 T00670039
PAGS 241856Z AUTO 33005KT 10SM CLR 04/03 A2939 RMK AO2 SLP953 T00390033
PAGS 241756Z AUTO 00000KT 10SM CLR 01/01 A2943 RMK AO2 SLP965 T00110011 10017 21006 58011 FZRANO
PAGS 241656Z AUTO 00000KT 10SM CLR 01/00 A2945 RMK AO2 SLP972 T00060000 FZRANO
PAGS 241556Z AUTO 35003KT 10SM CLR 01/01 A2946 RMK AO2 SLP975 T00060006 FZRANO
PAGS 241456Z AUTO 32007KT 10SM CLR 00/M01 A2946 RMK AO2 SLP976 T00001006 58007 FZRANO
PAGS 241356Z AUTO 01003KT 10SM CLR 00/M01 A2948 RMK AO2 SLP981 T00001006 FZRANO
PAGS 241256Z AUTO 00000KT 10SM OVC048 01/01 A2948 RMK AO2 SLP984 T00060006 FZRANO